sensor_id;sensor_type;location;lat;lon;timestamp;temperature;humidity
33023;DHT22;19390;51.460;5.710;2022-12-18T00:01:46;-7.10;99.90
33023;DHT22;19390;51.460;5.710;2022-12-18T00:04:22;-7.10;99.90
33023;DHT22;19390;51.460;5.710;2022-12-18T00:06:49;-7.00;99.90
33023;DHT22;19390;51.460;5.710;2022-12-18T00:09:15;-7.00;99.90
33023;DHT22;19390;51.460;5.710;2022-12-18T00:11:41;-7.10;99.90
33023;DHT22;19390;51.460;5.710;2022-12-18T00:14:07;-7.20;99.90
33023;DHT22;19390;51.460;5.710;2022-12-18T00:16:32;-7.20;99.90
33023;DHT22;19390;51.460;5.710;2022-12-18T00:19:01;-7.20;99.90
33023;DHT22;19390;51.460;5.710;2022-12-18T00:21:27;-7.10;99.90
33023;DHT22;19390;51.460;5.710;2022-12-18T00:23:54;-7.00;99.90
33023;DHT22;19390;51.460;5.710;2022-12-18T00:26:23;-7.00;99.90
33023;DHT22;19390;51.460;5.710;2022-12-18T00:28:49;-6.90;99.90
33023;DHT22;19390;51.460;5.710;2022-12-18T00:31:18;-7.00;99.90
33023;DHT22;19390;51.460;5.710;2022-12-18T00:33:44;-7.30;99.90
33023;DHT22;19390;51.460;5.710;2022-12-18T00:36:12;-7.50;99.90
33023;DHT22;19390;51.460;5.710;2022-12-18T00:38:39;-7.60;99.90
33023;DHT22;19390;51.460;5.710;2022-12-18T00:41:06;-7.80;99.90
33023;DHT22;19390;51.460;5.710;2022-12-18T00:43:32;-7.70;99.90
33023;DHT22;19390;51.460;5.710;2022-12-18T00:46:00;-7.70;99.90
33023;DHT22;19390;51.460;5.710;2022-12-18T00:48:26;-7.70;99.90
33023;DHT22;19390;51.460;5.710;2022-12-18T00:50:51;-7.90;99.90
33023;DHT22;19390;51.460;5.710;2022-12-18T00:53:18;-7.80;99.90
33023;DHT22;19390;51.460;5.710;2022-12-18T00:55:44;-8.00;99.90
33023;DHT22;19390;51.460;5.710;2022-12-18T00:58:11;-8.10;99.90
33023;DHT22;19390;51.460;5.710;2022-12-18T01:00:37;-8.10;99.90
33023;DHT22;19390;51.460;5.710;2022-12-18T01:03:03;-8.00;99.90
33023;DHT22;19390;51.460;5.710;2022-12-18T01:05:29;-8.10;99.90
33023;DHT22;19390;51.460;5.710;2022-12-18T01:07:56;-8.20;99.90
33023;DHT22;19390;51.460;5.710;2022-12-18T01:10:23;-7.90;99.90
33023;DHT22;19390;51.460;5.710;2022-12-18T01:12:49;-7.40;99.90
33023;DHT22;19390;51.460;5.710;2022-12-18T01:15:15;-7.30;99.90
33023;DHT22;19390;51.460;5.710;2022-12-18T01:17:41;-7.20;99.90
33023;DHT22;19390;51.460;5.710;2022-12-18T01:20:08;-7.40;99.90
33023;DHT22;19390;51.460;5.710;2022-12-18T01:22:34;-7.70;99.90
33023;DHT22;19390;51.460;5.710;2022-12-18T01:25:00;-7.80;99.90
33023;DHT22;19390;51.460;5.710;2022-12-18T01:27:26;-7.60;99.90
33023;DHT22;19390;51.460;5.710;2022-12-18T01:29:52;-7.70;99.90
33023;DHT22;19390;51.460;5.710;2022-12-18T01:32:17;-7.70;99.90
33023;DHT22;19390;51.460;5.710;2022-12-18T01:34:43;-7.90;99.90
33023;DHT22;19390;51.460;5.710;2022-12-18T01:37:08;-8.10;99.90
33023;DHT22;19390;51.460;5.710;2022-12-18T01:39:34;-8.20;99.90
33023;DHT22;19390;51.460;5.710;2022-12-18T01:42:02;-8.30;99.90
33023;DHT22;19390;51.460;5.710;2022-12-18T01:44:54;-8.30;99.90
33023;DHT22;19390;51.460;5.710;2022-12-18T01:52:38;-8.20;99.90
33023;DHT22;19390;51.460;5.710;2022-12-18T01:55:06;-7.90;99.90
33023;DHT22;19390;51.460;5.710;2022-12-18T01:57:32;-7.80;99.90
33023;DHT22;19390;51.460;5.710;2022-12-18T02:00:06;-7.90;99.90
33023;DHT22;19390;51.460;5.710;2022-12-18T02:02:32;-7.90;99.90
33023;DHT22;19390;51.460;5.710;2022-12-18T02:04:58;-7.90;99.90
33023;DHT22;19390;51.460;5.710;2022-12-18T02:07:37;-8.10;99.90
33023;DHT22;19390;51.460;5.710;2022-12-18T02:10:20;-8.20;99.90
33023;DHT22;19390;51.460;5.710;2022-12-18T02:12:56;-8.30;99.90
33023;DHT22;19390;51.460;5.710;2022-12-18T02:15:31;-8.40;99.90
33023;DHT22;19390;51.460;5.710;2022-12-18T02:18:11;-8.60;99.90
33023;DHT22;19390;51.460;5.710;2022-12-18T02:20:47;-8.70;99.90
33023;DHT22;19390;51.460;5.710;2022-12-18T02:28:12;-8.40;99.90
33023;DHT22;19390;51.460;5.710;2022-12-18T02:30:39;-8.40;99.90
33023;DHT22;19390;51.460;5.710;2022-12-18T02:33:08;-8.60;99.90
33023;DHT22;19390;51.460;5.710;2022-12-18T02:35:36;-8.80;99.90
33023;DHT22;19390;51.460;5.710;2022-12-18T02:38:03;-8.80;99.90
33023;DHT22;19390;51.460;5.710;2022-12-18T02:40:29;-8.90;99.90
33023;DHT22;19390;51.460;5.710;2022-12-18T02:42:55;-9.00;99.90
33023;DHT22;19390;51.460;5.710;2022-12-18T02:45:27;-9.00;99.90
33023;DHT22;19390;51.460;5.710;2022-12-18T02:47:52;-9.10;99.90
33023;DHT22;19390;51.460;5.710;2022-12-18T02:50:43;-8.90;99.90
33023;DHT22;19390;51.460;5.710;2022-12-18T02:56:19;-8.70;99.90
33023;DHT22;19390;51.460;5.710;2022-12-18T02:58:57;-8.60;99.90
33023;DHT22;19390;51.460;5.710;2022-12-18T03:01:36;-8.60;99.90
33023;DHT22;19390;51.460;5.710;2022-12-18T03:04:17;-8.80;99.90
33023;DHT22;19390;51.460;5.710;2022-12-18T03:06:50;-8.70;99.90
33023;DHT22;19390;51.460;5.710;2022-12-18T03:09:29;-8.80;99.90
33023;DHT22;19390;51.460;5.710;2022-12-18T03:12:01;-8.90;99.90
33023;DHT22;19390;51.460;5.710;2022-12-18T03:15:01;-8.90;99.90
33023;DHT22;19390;51.460;5.710;2022-12-18T03:17:30;-8.70;99.90
33023;DHT22;19390;51.460;5.710;2022-12-18T03:20:00;-8.80;99.90
33023;DHT22;19390;51.460;5.710;2022-12-18T03:22:30;-8.60;99.90
33023;DHT22;19390;51.460;5.710;2022-12-18T03:24:56;-8.40;99.90
33023;DHT22;19390;51.460;5.710;2022-12-18T03:27:24;-8.00;99.90
33023;DHT22;19390;51.460;5.710;2022-12-18T03:30:03;-7.40;99.90
33023;DHT22;19390;51.460;5.710;2022-12-18T03:35:08;-7.40;99.90
33023;DHT22;19390;51.460;5.710;2022-12-18T03:37:35;-7.50;99.90
33023;DHT22;19390;51.460;5.710;2022-12-18T03:40:02;-7.40;99.90
33023;DHT22;19390;51.460;5.710;2022-12-18T03:45:11;-7.30;99.90
33023;DHT22;19390;51.460;5.710;2022-12-18T03:50:49;-7.70;99.90
33023;DHT22;19390;51.460;5.710;2022-12-18T03:55:58;-7.50;99.90
33023;DHT22;19390;51.460;5.710;2022-12-18T03:58:25;-7.50;99.90
33023;DHT22;19390;51.460;5.710;2022-12-18T04:00:54;-7.30;99.90
33023;DHT22;19390;51.460;5.710;2022-12-18T04:03:22;-7.30;99.90
33023;DHT22;19390;51.460;5.710;2022-12-18T04:05:51;-7.40;99.90
33023;DHT22;19390;51.460;5.710;2022-12-18T04:08:18;-6.80;99.90
33023;DHT22;19390;51.460;5.710;2022-12-18T04:10:44;-7.00;99.90
33023;DHT22;19390;51.460;5.710;2022-12-18T04:13:10;-6.70;99.90
33023;DHT22;19390;51.460;5.710;2022-12-18T04:15:36;-6.60;99.90
33023;DHT22;19390;51.460;5.710;2022-12-18T04:18:03;-6.80;99.90
33023;DHT22;19390;51.460;5.710;2022-12-18T04:20:29;-6.80;99.90
33023;DHT22;19390;51.460;5.710;2022-12-18T04:22:54;-6.80;99.90
33023;DHT22;19390;51.460;5.710;2022-12-18T04:25:20;-6.80;99.90
33023;DHT22;19390;51.460;5.710;2022-12-18T04:27:45;-6.90;99.90
33023;DHT22;19390;51.460;5.710;2022-12-18T04:30:11;-6.70;99.90
33023;DHT22;19390;51.460;5.710;2022-12-18T04:32:37;-6.90;99.90
33023;DHT22;19390;51.460;5.710;2022-12-18T04:35:03;-6.70;99.90
33023;DHT22;19390;51.460;5.710;2022-12-18T04:37:29;-6.70;99.90
33023;DHT22;19390;51.460;5.710;2022-12-18T04:39:55;-6.80;99.90
33023;DHT22;19390;51.460;5.710;2022-12-18T04:42:21;-6.60;99.90
33023;DHT22;19390;51.460;5.710;2022-12-18T04:44:46;-6.80;99.90
33023;DHT22;19390;51.460;5.710;2022-12-18T04:47:12;-6.90;99.90
33023;DHT22;19390;51.460;5.710;2022-12-18T04:49:37;-6.70;99.90
33023;DHT22;19390;51.460;5.710;2022-12-18T04:52:03;-6.60;99.90
33023;DHT22;19390;51.460;5.710;2022-12-18T04:54:29;-6.40;99.90
33023;DHT22;19390;51.460;5.710;2022-12-18T04:56:54;-6.40;99.90
33023;DHT22;19390;51.460;5.710;2022-12-18T04:59:20;-6.70;99.90
33023;DHT22;19390;51.460;5.710;2022-12-18T05:01:46;-6.70;99.90
33023;DHT22;19390;51.460;5.710;2022-12-18T05:04:11;-6.60;99.90
33023;DHT22;19390;51.460;5.710;2022-12-18T05:06:37;-6.70;99.90
33023;DHT22;19390;51.460;5.710;2022-12-18T05:09:03;-6.50;99.90
33023;DHT22;19390;51.460;5.710;2022-12-18T05:11:28;-7.00;99.90
33023;DHT22;19390;51.460;5.710;2022-12-18T05:13:54;-6.90;99.90
33023;DHT22;19390;51.460;5.710;2022-12-18T05:16:22;-7.00;99.90
33023;DHT22;19390;51.460;5.710;2022-12-18T05:18:48;-6.70;99.90
33023;DHT22;19390;51.460;5.710;2022-12-18T05:21:14;-7.00;99.90
33023;DHT22;19390;51.460;5.710;2022-12-18T05:23:39;-7.10;99.90
33023;DHT22;19390;51.460;5.710;2022-12-18T05:26:06;-7.40;99.90
33023;DHT22;19390;51.460;5.710;2022-12-18T05:28:35;-7.40;99.90
33023;DHT22;19390;51.460;5.710;2022-12-18T05:31:02;-7.20;99.90
33023;DHT22;19390;51.460;5.710;2022-12-18T05:33:31;-7.20;99.90
33023;DHT22;19390;51.460;5.710;2022-12-18T05:35:58;-7.30;99.90
33023;DHT22;19390;51.460;5.710;2022-12-18T05:38:28;-7.50;99.90
33023;DHT22;19390;51.460;5.710;2022-12-18T05:40:54;-7.60;99.90
33023;DHT22;19390;51.460;5.710;2022-12-18T05:43:24;-7.60;99.90
33023;DHT22;19390;51.460;5.710;2022-12-18T05:45:50;-7.70;99.90
33023;DHT22;19390;51.460;5.710;2022-12-18T05:48:16;-7.50;99.90
33023;DHT22;19390;51.460;5.710;2022-12-18T05:50:44;-7.40;99.90
33023;DHT22;19390;51.460;5.710;2022-12-18T05:53:14;-7.30;99.90
33023;DHT22;19390;51.460;5.710;2022-12-18T05:55:41;-7.40;99.90
33023;DHT22;19390;51.460;5.710;2022-12-18T05:58:08;-7.50;99.90
33023;DHT22;19390;51.460;5.710;2022-12-18T06:00:36;-7.50;99.90
33023;DHT22;19390;51.460;5.710;2022-12-18T06:03:05;-7.30;99.90
33023;DHT22;19390;51.460;5.710;2022-12-18T06:05:37;-7.00;99.90
33023;DHT22;19390;51.460;5.710;2022-12-18T06:08:04;-6.80;99.90
33023;DHT22;19390;51.460;5.710;2022-12-18T06:10:29;-7.00;99.90
33023;DHT22;19390;51.460;5.710;2022-12-18T06:12:55;-7.00;99.90
33023;DHT22;19390;51.460;5.710;2022-12-18T06:15:21;-6.90;99.90
33023;DHT22;19390;51.460;5.710;2022-12-18T06:17:46;-6.90;99.90
33023;DHT22;19390;51.460;5.710;2022-12-18T06:20:12;-7.00;99.90
33023;DHT22;19390;51.460;5.710;2022-12-18T06:22:37;-6.80;99.90
33023;DHT22;19390;51.460;5.710;2022-12-18T06:25:04;-6.80;99.90
33023;DHT22;19390;51.460;5.710;2022-12-18T06:27:30;-6.40;99.90
33023;DHT22;19390;51.460;5.710;2022-12-18T06:29:55;-6.30;99.90
33023;DHT22;19390;51.460;5.710;2022-12-18T06:32:21;-6.40;99.90
33023;DHT22;19390;51.460;5.710;2022-12-18T06:34:46;-6.70;99.90
33023;DHT22;19390;51.460;5.710;2022-12-18T06:37:12;-6.50;99.90
33023;DHT22;19390;51.460;5.710;2022-12-18T06:39:38;-6.50;99.90
33023;DHT22;19390;51.460;5.710;2022-12-18T06:42:03;-6.30;99.90
33023;DHT22;19390;51.460;5.710;2022-12-18T06:44:29;-6.50;99.90
33023;DHT22;19390;51.460;5.710;2022-12-18T06:46:55;-6.10;99.90
33023;DHT22;19390;51.460;5.710;2022-12-18T06:49:20;-6.50;99.90
33023;DHT22;19390;51.460;5.710;2022-12-18T06:51:46;-6.50;99.90
33023;DHT22;19390;51.460;5.710;2022-12-18T06:54:12;-7.00;99.90
33023;DHT22;19390;51.460;5.710;2022-12-18T06:56:38;-6.60;99.90
33023;DHT22;19390;51.460;5.710;2022-12-18T06:59:04;-6.50;99.90
33023;DHT22;19390;51.460;5.710;2022-12-18T07:01:29;-6.70;99.90
33023;DHT22;19390;51.460;5.710;2022-12-18T07:03:56;-6.50;99.90
33023;DHT22;19390;51.460;5.710;2022-12-18T07:06:24;-6.40;99.90
33023;DHT22;19390;51.460;5.710;2022-12-18T07:08:50;-6.50;99.90
33023;DHT22;19390;51.460;5.710;2022-12-18T07:11:17;-6.80;99.90
33023;DHT22;19390;51.460;5.710;2022-12-18T07:13:44;-7.20;99.90
33023;DHT22;19390;51.460;5.710;2022-12-18T07:16:13;-7.10;99.90
33023;DHT22;19390;51.460;5.710;2022-12-18T07:18:38;-7.10;99.90
33023;DHT22;19390;51.460;5.710;2022-12-18T07:21:06;-7.00;99.90
33023;DHT22;19390;51.460;5.710;2022-12-18T07:23:33;-7.20;99.90
33023;DHT22;19390;51.460;5.710;2022-12-18T07:26:11;-7.30;99.90
33023;DHT22;19390;51.460;5.710;2022-12-18T07:28:39;-6.90;99.90
33023;DHT22;19390;51.460;5.710;2022-12-18T07:31:06;-7.10;99.90
33023;DHT22;19390;51.460;5.710;2022-12-18T07:33:33;-7.40;99.90
33023;DHT22;19390;51.460;5.710;2022-12-18T07:36:00;-7.30;99.90
33023;DHT22;19390;51.460;5.710;2022-12-18T07:38:26;-7.40;99.90
33023;DHT22;19390;51.460;5.710;2022-12-18T07:40:52;-7.10;99.90
33023;DHT22;19390;51.460;5.710;2022-12-18T07:43:17;-7.40;99.90
33023;DHT22;19390;51.460;5.710;2022-12-18T07:45:43;-7.00;99.90
33023;DHT22;19390;51.460;5.710;2022-12-18T07:48:09;-6.70;99.90
33023;DHT22;19390;51.460;5.710;2022-12-18T07:50:35;-7.00;99.90
33023;DHT22;19390;51.460;5.710;2022-12-18T07:53:01;-6.70;99.90
33023;DHT22;19390;51.460;5.710;2022-12-18T07:55:30;-6.40;99.90
33023;DHT22;19390;51.460;5.710;2022-12-18T07:57:56;-6.30;99.90
33023;DHT22;19390;51.460;5.710;2022-12-18T08:00:22;-6.20;99.90
33023;DHT22;19390;51.460;5.710;2022-12-18T08:02:48;-6.00;99.90
33023;DHT22;19390;51.460;5.710;2022-12-18T08:05:13;-5.90;99.90
33023;DHT22;19390;51.460;5.710;2022-12-18T08:07:39;-5.80;99.90
33023;DHT22;19390;51.460;5.710;2022-12-18T08:10:05;-5.70;99.90
33023;DHT22;19390;51.460;5.710;2022-12-18T08:12:31;-5.50;99.90
33023;DHT22;19390;51.460;5.710;2022-12-18T08:14:57;-5.30;99.90
33023;DHT22;19390;51.460;5.710;2022-12-18T08:17:23;-5.30;99.90
33023;DHT22;19390;51.460;5.710;2022-12-18T08:19:48;-5.10;99.90
33023;DHT22;19390;51.460;5.710;2022-12-18T08:22:14;-4.90;99.90
33023;DHT22;19390;51.460;5.710;2022-12-18T08:24:40;-4.80;99.90
33023;DHT22;19390;51.460;5.710;2022-12-18T08:27:05;-4.60;99.90
33023;DHT22;19390;51.460;5.710;2022-12-18T08:29:31;-4.20;99.90
33023;DHT22;19390;51.460;5.710;2022-12-18T08:31:57;-3.80;99.90
33023;DHT22;19390;51.460;5.710;2022-12-18T08:34:22;-4.10;99.90
33023;DHT22;19390;51.460;5.710;2022-12-18T08:36:48;-4.30;99.90
33023;DHT22;19390;51.460;5.710;2022-12-18T08:39:14;-4.40;99.90
33023;DHT22;19390;51.460;5.710;2022-12-18T08:41:39;-4.40;99.90
33023;DHT22;19390;51.460;5.710;2022-12-18T08:44:07;-4.40;99.90
33023;DHT22;19390;51.460;5.710;2022-12-18T08:46:51;-4.30;99.90
33023;DHT22;19390;51.460;5.710;2022-12-18T08:49:17;-4.30;99.90
33023;DHT22;19390;51.460;5.710;2022-12-18T08:51:42;-4.30;99.90
33023;DHT22;19390;51.460;5.710;2022-12-18T08:54:11;-4.20;99.90
33023;DHT22;19390;51.460;5.710;2022-12-18T08:56:37;-4.20;99.90
33023;DHT22;19390;51.460;5.710;2022-12-18T08:59:02;-4.20;99.90
33023;DHT22;19390;51.460;5.710;2022-12-18T09:01:29;-4.10;99.90
33023;DHT22;19390;51.460;5.710;2022-12-18T09:03:55;-3.90;99.90
33023;DHT22;19390;51.460;5.710;2022-12-18T09:06:22;-3.90;99.90
33023;DHT22;19390;51.460;5.710;2022-12-18T09:08:48;-3.90;99.90
33023;DHT22;19390;51.460;5.710;2022-12-18T09:11:26;-3.90;99.90
33023;DHT22;19390;51.460;5.710;2022-12-18T09:13:53;-3.80;99.90
33023;DHT22;19390;51.460;5.710;2022-12-18T09:16:19;-3.80;99.90
33023;DHT22;19390;51.460;5.710;2022-12-18T09:18:45;-3.60;99.90
33023;DHT22;19390;51.460;5.710;2022-12-18T09:21:13;-3.40;99.90
33023;DHT22;19390;51.460;5.710;2022-12-18T09:23:39;-3.40;99.90
33023;DHT22;19390;51.460;5.710;2022-12-18T09:26:05;-3.30;99.90
33023;DHT22;19390;51.460;5.710;2022-12-18T09:28:31;-3.50;99.90
33023;DHT22;19390;51.460;5.710;2022-12-18T09:30:56;-3.40;99.90
33023;DHT22;19390;51.460;5.710;2022-12-18T09:33:22;-3.20;99.90
33023;DHT22;19390;51.460;5.710;2022-12-18T09:35:48;-3.10;99.90
33023;DHT22;19390;51.460;5.710;2022-12-18T09:38:16;-3.20;99.90
33023;DHT22;19390;51.460;5.710;2022-12-18T09:40:44;-3.20;99.90
33023;DHT22;19390;51.460;5.710;2022-12-18T09:43:59;-3.20;99.90
33023;DHT22;19390;51.460;5.710;2022-12-18T09:46:09;-3.20;99.90
33023;DHT22;19390;51.460;5.710;2022-12-18T09:48:41;-3.00;99.90
33023;DHT22;19390;51.460;5.710;2022-12-18T09:51:33;-3.00;99.90
33023;DHT22;19390;51.460;5.710;2022-12-18T09:54:05;-2.90;99.90
33023;DHT22;19390;51.460;5.710;2022-12-18T09:56:36;-2.80;99.90
33023;DHT22;19390;51.460;5.710;2022-12-18T09:59:04;-3.00;99.90
33023;DHT22;19390;51.460;5.710;2022-12-18T10:01:32;-2.80;99.90
33023;DHT22;19390;51.460;5.710;2022-12-18T10:03:58;-2.70;99.90
33023;DHT22;19390;51.460;5.710;2022-12-18T10:12:24;-2.70;99.90
33023;DHT22;19390;51.460;5.710;2022-12-18T10:17:50;-2.60;99.90
33023;DHT22;19390;51.460;5.710;2022-12-18T10:20:38;-2.30;99.90
33023;DHT22;19390;51.460;5.710;2022-12-18T10:25:53;-2.30;99.90
33023;DHT22;19390;51.460;5.710;2022-12-18T10:28:21;-2.20;99.90
33023;DHT22;19390;51.460;5.710;2022-12-18T10:30:47;-2.00;99.90
33023;DHT22;19390;51.460;5.710;2022-12-18T10:33:38;-1.80;99.90
33023;DHT22;19390;51.460;5.710;2022-12-18T10:36:03;-1.90;99.90
33023;DHT22;19390;51.460;5.710;2022-12-18T10:38:30;-1.90;99.90
33023;DHT22;19390;51.460;5.710;2022-12-18T10:43:44;-1.70;99.90
33023;DHT22;19390;51.460;5.710;2022-12-18T10:51:07;-1.80;99.90
33023;DHT22;19390;51.460;5.710;2022-12-18T10:53:35;-1.60;99.90
33023;DHT22;19390;51.460;5.710;2022-12-18T10:56:04;-1.60;99.90
33023;DHT22;19390;51.460;5.710;2022-12-18T10:58:38;-1.50;99.90
33023;DHT22;19390;51.460;5.710;2022-12-18T11:01:14;-1.30;99.90
33023;DHT22;19390;51.460;5.710;2022-12-18T11:04:04;-1.50;99.90
33023;DHT22;19390;51.460;5.710;2022-12-18T11:06:32;-1.30;99.90
33023;DHT22;19390;51.460;5.710;2022-12-18T11:11:31;-1.40;99.90
33023;DHT22;19390;51.460;5.710;2022-12-18T11:14:04;-1.50;99.90
33023;DHT22;19390;51.460;5.710;2022-12-18T11:16:36;-1.50;99.90
33023;DHT22;19390;51.460;5.710;2022-12-18T11:21:51;-1.40;99.90
33023;DHT22;19390;51.460;5.710;2022-12-18T11:24:32;-1.50;99.90
33023;DHT22;19390;51.460;5.710;2022-12-18T11:27:01;-1.50;99.90
33023;DHT22;19390;51.460;5.710;2022-12-18T11:29:39;-1.50;99.90
33023;DHT22;19390;51.460;5.710;2022-12-18T11:32:34;-1.40;99.90
33023;DHT22;19390;51.460;5.710;2022-12-18T11:37:59;-1.40;99.90
33023;DHT22;19390;51.460;5.710;2022-12-18T11:40:40;-1.40;99.90
33023;DHT22;19390;51.460;5.710;2022-12-18T11:43:14;-1.30;99.90
33023;DHT22;19390;51.460;5.710;2022-12-18T11:45:49;-1.10;99.90
33023;DHT22;19390;51.460;5.710;2022-12-18T11:51:38;-1.20;99.90
33023;DHT22;19390;51.460;5.710;2022-12-18T11:54:14;-1.20;99.90
33023;DHT22;19390;51.460;5.710;2022-12-18T12:02:38;-1.00;99.90
33023;DHT22;19390;51.460;5.710;2022-12-18T12:10:53;-0.80;99.90
33023;DHT22;19390;51.460;5.710;2022-12-18T12:16:17;-0.90;99.90
33023;DHT22;19390;51.460;5.710;2022-12-18T12:19:06;-0.80;99.90
33023;DHT22;19390;51.460;5.710;2022-12-18T12:21:41;-0.90;99.90
33023;DHT22;19390;51.460;5.710;2022-12-18T12:37:19;-0.70;99.90
33023;DHT22;19390;51.460;5.710;2022-12-18T12:39:48;-0.70;99.90
33023;DHT22;19390;51.460;5.710;2022-12-18T12:45:16;-0.70;99.90
33023;DHT22;19390;51.460;5.710;2022-12-18T12:47:44;-0.70;99.90
33023;DHT22;19390;51.460;5.710;2022-12-18T12:50:21;-0.70;99.90
33023;DHT22;19390;51.460;5.710;2022-12-18T12:52:51;-0.60;99.90
33023;DHT22;19390;51.460;5.710;2022-12-18T12:55:21;-0.60;99.90
33023;DHT22;19390;51.460;5.710;2022-12-18T12:58:10;-0.50;99.90
33023;DHT22;19390;51.460;5.710;2022-12-18T13:01:20;-0.60;99.90
33023;DHT22;19390;51.460;5.710;2022-12-18T13:03:44;-0.60;99.90
33023;DHT22;19390;51.460;5.710;2022-12-18T13:06:28;-0.50;99.90
33023;DHT22;19390;51.460;5.710;2022-12-18T13:09:00;-0.50;99.90
33023;DHT22;19390;51.460;5.710;2022-12-18T13:11:43;-0.50;99.90
33023;DHT22;19390;51.460;5.710;2022-12-18T13:17:30;-0.50;99.90
33023;DHT22;19390;51.460;5.710;2022-12-18T13:20:13;-0.60;99.90
33023;DHT22;19390;51.460;5.710;2022-12-18T13:22:48;-0.50;99.90
33023;DHT22;19390;51.460;5.710;2022-12-18T13:25:34;-0.60;99.90
33023;DHT22;19390;51.460;5.710;2022-12-18T13:40:55;-0.50;99.90
33023;DHT22;19390;51.460;5.710;2022-12-18T13:43:23;-0.50;99.90
33023;DHT22;19390;51.460;5.710;2022-12-18T13:48:37;-0.50;99.90
33023;DHT22;19390;51.460;5.710;2022-12-18T13:51:06;-0.50;99.90
33023;DHT22;19390;51.460;5.710;2022-12-18T13:53:57;-0.50;99.90
33023;DHT22;19390;51.460;5.710;2022-12-18T13:56:26;-0.50;99.90
33023;DHT22;19390;51.460;5.710;2022-12-18T13:59:18;-0.50;99.90
33023;DHT22;19390;51.460;5.710;2022-12-18T14:04:12;-0.40;99.90
33023;DHT22;19390;51.460;5.710;2022-12-18T14:06:44;-0.40;99.90
33023;DHT22;19390;51.460;5.710;2022-12-18T14:09:14;-0.40;99.90
33023;DHT22;19390;51.460;5.710;2022-12-18T14:11:45;-0.40;99.90
33023;DHT22;19390;51.460;5.710;2022-12-18T14:14:14;-0.40;99.90
33023;DHT22;19390;51.460;5.710;2022-12-18T14:16:41;-0.40;99.90
33023;DHT22;19390;51.460;5.710;2022-12-18T14:19:12;-0.40;99.90
33023;DHT22;19390;51.460;5.710;2022-12-18T14:21:39;-0.40;99.90
33023;DHT22;19390;51.460;5.710;2022-12-18T14:24:21;-0.30;99.90
33023;DHT22;19390;51.460;5.710;2022-12-18T14:26:48;-0.30;99.90
33023;DHT22;19390;51.460;5.710;2022-12-18T14:34:36;-0.40;99.90
33023;DHT22;19390;51.460;5.710;2022-12-18T14:37:02;-0.40;99.90
33023;DHT22;19390;51.460;5.710;2022-12-18T14:39:28;-0.40;99.90
33023;DHT22;19390;51.460;5.710;2022-12-18T14:41:54;-0.40;99.90
33023;DHT22;19390;51.460;5.710;2022-12-18T14:44:19;-0.30;99.90
33023;DHT22;19390;51.460;5.710;2022-12-18T14:46:47;-0.30;99.90
33023;DHT22;19390;51.460;5.710;2022-12-18T14:49:32;-0.30;99.90
33023;DHT22;19390;51.460;5.710;2022-12-18T14:52:00;-0.30;99.90
33023;DHT22;19390;51.460;5.710;2022-12-18T14:54:27;-0.30;99.90
33023;DHT22;19390;51.460;5.710;2022-12-18T14:57:14;-0.30;99.90
33023;DHT22;19390;51.460;5.710;2022-12-18T14:59:42;-0.20;99.90
33023;DHT22;19390;51.460;5.710;2022-12-18T15:02:26;-0.30;99.90
33023;DHT22;19390;51.460;5.710;2022-12-18T15:07:54;-0.30;99.90
33023;DHT22;19390;51.460;5.710;2022-12-18T15:10:24;-0.30;99.90
33023;DHT22;19390;51.460;5.710;2022-12-18T15:13:07;-0.30;99.90
33023;DHT22;19390;51.460;5.710;2022-12-18T15:18:11;-0.30;99.90
33023;DHT22;19390;51.460;5.710;2022-12-18T15:23:18;-0.40;99.90
33023;DHT22;19390;51.460;5.710;2022-12-18T15:25:46;-0.40;99.90
33023;DHT22;19390;51.460;5.710;2022-12-18T15:28:21;-0.30;99.90
33023;DHT22;19390;51.460;5.710;2022-12-18T15:31:00;-0.40;99.90
33023;DHT22;19390;51.460;5.710;2022-12-18T15:33:29;-0.40;99.90
33023;DHT22;19390;51.460;5.710;2022-12-18T15:36:00;-0.40;99.90
33023;DHT22;19390;51.460;5.710;2022-12-18T15:38:26;-0.30;99.90
33023;DHT22;19390;51.460;5.710;2022-12-18T15:40:53;-0.40;99.90
33023;DHT22;19390;51.460;5.710;2022-12-18T15:43:21;-0.50;99.90
33023;DHT22;19390;51.460;5.710;2022-12-18T15:46:06;-0.40;99.90
33023;DHT22;19390;51.460;5.710;2022-12-18T15:48:39;-0.50;99.90
33023;DHT22;19390;51.460;5.710;2022-12-18T15:51:18;-0.40;99.90
33023;DHT22;19390;51.460;5.710;2022-12-18T15:53:46;-0.50;99.90
33023;DHT22;19390;51.460;5.710;2022-12-18T15:56:13;-0.40;99.90
33023;DHT22;19390;51.460;5.710;2022-12-18T15:58:58;-0.40;99.90
33023;DHT22;19390;51.460;5.710;2022-12-18T16:01:26;-0.40;99.90
33023;DHT22;19390;51.460;5.710;2022-12-18T16:03:52;-0.40;99.90
33023;DHT22;19390;51.460;5.710;2022-12-18T16:06:19;-0.40;99.90
33023;DHT22;19390;51.460;5.710;2022-12-18T16:08:45;-0.40;99.90
33023;DHT22;19390;51.460;5.710;2022-12-18T16:11:23;-0.50;99.90
33023;DHT22;19390;51.460;5.710;2022-12-18T16:14:23;-0.50;99.90
33023;DHT22;19390;51.460;5.710;2022-12-18T16:16:56;-0.50;99.90
33023;DHT22;19390;51.460;5.710;2022-12-18T16:19:22;-0.50;99.90
33023;DHT22;19390;51.460;5.710;2022-12-18T16:21:51;-0.50;99.90
33023;DHT22;19390;51.460;5.710;2022-12-18T16:24:21;-0.40;99.90
33023;DHT22;19390;51.460;5.710;2022-12-18T16:26:48;-0.40;99.90
33023;DHT22;19390;51.460;5.710;2022-12-18T16:29:14;-0.50;99.90
33023;DHT22;19390;51.460;5.710;2022-12-18T16:31:41;-0.50;99.90
33023;DHT22;19390;51.460;5.710;2022-12-18T16:36:39;-0.50;99.90
33023;DHT22;19390;51.460;5.710;2022-12-18T16:39:05;-0.40;99.90
33023;DHT22;19390;51.460;5.710;2022-12-18T16:41:31;-0.50;99.90
33023;DHT22;19390;51.460;5.710;2022-12-18T16:43:58;-0.20;99.90
33023;DHT22;19390;51.460;5.710;2022-12-18T16:46:24;-0.20;99.90
33023;DHT22;19390;51.460;5.710;2022-12-18T16:48:50;-0.30;99.90
33023;DHT22;19390;51.460;5.710;2022-12-18T16:51:15;-0.20;99.90
33023;DHT22;19390;51.460;5.710;2022-12-18T16:53:41;0.00;99.90
33023;DHT22;19390;51.460;5.710;2022-12-18T16:56:07;-0.20;99.90
33023;DHT22;19390;51.460;5.710;2022-12-18T16:58:32;0.00;99.90
33023;DHT22;19390;51.460;5.710;2022-12-18T17:00:58;0.00;99.90
33023;DHT22;19390;51.460;5.710;2022-12-18T17:03:24;-0.20;99.90
33023;DHT22;19390;51.460;5.710;2022-12-18T17:05:50;-0.40;99.90
33023;DHT22;19390;51.460;5.710;2022-12-18T17:08:17;-0.40;99.90
33023;DHT22;19390;51.460;5.710;2022-12-18T17:10:43;-0.40;99.90
33023;DHT22;19390;51.460;5.710;2022-12-18T17:13:08;-0.40;99.90
33023;DHT22;19390;51.460;5.710;2022-12-18T17:15:35;-0.50;99.90
33023;DHT22;19390;51.460;5.710;2022-12-18T17:18:01;-0.50;99.90
33023;DHT22;19390;51.460;5.710;2022-12-18T17:20:26;-0.50;99.90
33023;DHT22;19390;51.460;5.710;2022-12-18T17:22:52;-0.40;99.90
33023;DHT22;19390;51.460;5.710;2022-12-18T17:25:18;-0.50;99.90
33023;DHT22;19390;51.460;5.710;2022-12-18T17:27:43;-0.40;99.90
33023;DHT22;19390;51.460;5.710;2022-12-18T17:30:09;-0.50;99.90
33023;DHT22;19390;51.460;5.710;2022-12-18T17:32:35;-0.40;99.90
33023;DHT22;19390;51.460;5.710;2022-12-18T17:35:01;-0.40;99.90
33023;DHT22;19390;51.460;5.710;2022-12-18T17:37:26;-0.40;99.90
33023;DHT22;19390;51.460;5.710;2022-12-18T17:39:52;-0.40;99.90
33023;DHT22;19390;51.460;5.710;2022-12-18T17:42:18;-0.50;99.90
33023;DHT22;19390;51.460;5.710;2022-12-18T17:44:44;-0.40;99.90
33023;DHT22;19390;51.460;5.710;2022-12-18T17:47:10;-0.40;99.90